Terminal Aerodrome Forecast
Issued by NWS Shreveport, LA

Home | Current Version | Previous Version | Text Only | Print | Product List | Glossary On
Versions: 1 2 3 4 5 6 7 8 9 10 11 12 13
463
FTUS44 KSHV 120523
TAFLFK
TAF
KLFK 120523Z 1206/1306 00000KT P6SM SCT250
     FM120700 29003KT P6SM SKC
     FM120900 33005KT P6SM SKC
     FM121500 35008G15KT P6SM SKC
     FM121900 34008KT P6SM SKC
     FM130000 00000KT P6SM SKC=

USA.gov is the U.S. government's official web portal to all federal, state and local government web resources and services.